sensor_id;sensor_type;location;lat;lon;timestamp;P1;durP1;ratioP1;P2;durP2;ratioP2
71792;SDS011;59639;51.170;6.456;2022-07-24T00:00:50;9.40;;;5.80;;
71792;SDS011;59639;51.170;6.456;2022-07-24T00:03:15;8.07;;;5.68;;
71792;SDS011;59639;51.170;6.456;2022-07-24T00:05:40;8.30;;;6.43;;
71792;SDS011;59639;51.170;6.456;2022-07-24T00:08:06;10.98;;;5.88;;
71792;SDS011;59639;51.170;6.456;2022-07-24T00:10:31;13.73;;;5.45;;
71792;SDS011;59639;51.170;6.456;2022-07-24T00:12:57;9.23;;;5.88;;
71792;SDS011;59639;51.170;6.456;2022-07-24T00:15:23;6.80;;;6.00;;
71792;SDS011;59639;51.170;6.456;2022-07-24T00:17:48;13.02;;;6.18;;
71792;SDS011;59639;51.170;6.456;2022-07-24T00:20:14;10.88;;;6.13;;
71792;SDS011;59639;51.170;6.456;2022-07-24T00:22:39;9.43;;;6.53;;
71792;SDS011;59639;51.170;6.456;2022-07-24T00:25:05;11.73;;;5.90;;
71792;SDS011;59639;51.170;6.456;2022-07-24T00:27:30;14.38;;;6.20;;
71792;SDS011;59639;51.170;6.456;2022-07-24T00:29:56;12.40;;;6.85;;
71792;SDS011;59639;51.170;6.456;2022-07-24T00:32:21;11.80;;;6.47;;
71792;SDS011;59639;51.170;6.456;2022-07-24T00:34:47;15.80;;;6.63;;
71792;SDS011;59639;51.170;6.456;2022-07-24T00:37:12;9.80;;;6.43;;
71792;SDS011;59639;51.170;6.456;2022-07-24T00:39:37;14.68;;;6.40;;
71792;SDS011;59639;51.170;6.456;2022-07-24T00:42:03;10.05;;;5.90;;
71792;SDS011;59639;51.170;6.456;2022-07-24T00:44:28;12.63;;;6.93;;
71792;SDS011;59639;51.170;6.456;2022-07-24T00:46:54;11.05;;;5.88;;
71792;SDS011;59639;51.170;6.456;2022-07-24T00:49:20;10.82;;;6.43;;
71792;SDS011;59639;51.170;6.456;2022-07-24T00:51:47;9.07;;;6.35;;
71792;SDS011;59639;51.170;6.456;2022-07-24T00:54:14;12.38;;;6.82;;
71792;SDS011;59639;51.170;6.456;2022-07-24T00:56:41;13.45;;;6.15;;
71792;SDS011;59639;51.170;6.456;2022-07-24T00:59:09;14.73;;;6.47;;
71792;SDS011;59639;51.170;6.456;2022-07-24T01:01:35;9.52;;;5.97;;
71792;SDS011;59639;51.170;6.456;2022-07-24T01:04:01;11.38;;;6.63;;
71792;SDS011;59639;51.170;6.456;2022-07-24T01:06:26;10.75;;;6.43;;
71792;SDS011;59639;51.170;6.456;2022-07-24T01:08:52;7.10;;;5.93;;
71792;SDS011;59639;51.170;6.456;2022-07-24T01:11:18;9.98;;;6.03;;
71792;SDS011;59639;51.170;6.456;2022-07-24T01:13:45;15.52;;;7.40;;
71792;SDS011;59639;51.170;6.456;2022-07-24T01:16:12;10.27;;;6.78;;
71792;SDS011;59639;51.170;6.456;2022-07-24T01:18:38;12.18;;;6.88;;
71792;SDS011;59639;51.170;6.456;2022-07-24T01:21:03;11.20;;;7.65;;
71792;SDS011;59639;51.170;6.456;2022-07-24T01:23:29;14.05;;;6.78;;
71792;SDS011;59639;51.170;6.456;2022-07-24T01:25:55;9.60;;;6.20;;
71792;SDS011;59639;51.170;6.456;2022-07-24T01:28:20;18.08;;;6.68;;
71792;SDS011;59639;51.170;6.456;2022-07-24T01:30:46;11.32;;;6.88;;
71792;SDS011;59639;51.170;6.456;2022-07-24T01:33:11;13.23;;;7.80;;
71792;SDS011;59639;51.170;6.456;2022-07-24T01:35:38;13.90;;;6.50;;
71792;SDS011;59639;51.170;6.456;2022-07-24T01:38:04;12.32;;;6.75;;
71792;SDS011;59639;51.170;6.456;2022-07-24T01:40:30;10.23;;;7.30;;
71792;SDS011;59639;51.170;6.456;2022-07-24T01:42:55;10.70;;;6.72;;
71792;SDS011;59639;51.170;6.456;2022-07-24T01:45:21;9.38;;;6.57;;
71792;SDS011;59639;51.170;6.456;2022-07-24T01:47:47;13.00;;;6.97;;
71792;SDS011;59639;51.170;6.456;2022-07-24T01:50:12;12.45;;;7.00;;
71792;SDS011;59639;51.170;6.456;2022-07-24T01:52:39;13.73;;;7.32;;
71792;SDS011;59639;51.170;6.456;2022-07-24T01:55:04;12.70;;;7.05;;
71792;SDS011;59639;51.170;6.456;2022-07-24T01:57:30;14.77;;;7.85;;
71792;SDS011;59639;51.170;6.456;2022-07-24T01:59:57;11.40;;;6.40;;
71792;SDS011;59639;51.170;6.456;2022-07-24T02:02:23;16.67;;;7.75;;
71792;SDS011;59639;51.170;6.456;2022-07-24T02:04:49;10.82;;;6.63;;
71792;SDS011;59639;51.170;6.456;2022-07-24T02:07:14;12.15;;;6.82;;
71792;SDS011;59639;51.170;6.456;2022-07-24T02:09:39;9.35;;;6.85;;
71792;SDS011;59639;51.170;6.456;2022-07-24T02:12:05;13.18;;;7.55;;
71792;SDS011;59639;51.170;6.456;2022-07-24T02:14:30;12.80;;;7.38;;
71792;SDS011;59639;51.170;6.456;2022-07-24T02:16:57;16.05;;;7.15;;
71792;SDS011;59639;51.170;6.456;2022-07-24T02:19:22;15.27;;;6.57;;
71792;SDS011;59639;51.170;6.456;2022-07-24T02:21:49;10.48;;;6.43;;
71792;SDS011;59639;51.170;6.456;2022-07-24T02:24:15;11.93;;;7.55;;
71792;SDS011;59639;51.170;6.456;2022-07-24T02:26:40;16.45;;;7.47;;
71792;SDS011;59639;51.170;6.456;2022-07-24T02:29:06;17.15;;;8.20;;
71792;SDS011;59639;51.170;6.456;2022-07-24T02:31:31;12.70;;;6.95;;
71792;SDS011;59639;51.170;6.456;2022-07-24T02:33:56;12.00;;;7.22;;
71792;SDS011;59639;51.170;6.456;2022-07-24T02:36:22;14.60;;;8.18;;
71792;SDS011;59639;51.170;6.456;2022-07-24T02:38:47;14.63;;;8.75;;
71792;SDS011;59639;51.170;6.456;2022-07-24T02:41:12;12.07;;;7.32;;
71792;SDS011;59639;51.170;6.456;2022-07-24T02:43:38;19.60;;;7.80;;
71792;SDS011;59639;51.170;6.456;2022-07-24T02:46:03;13.68;;;7.25;;
71792;SDS011;59639;51.170;6.456;2022-07-24T02:48:28;13.75;;;7.78;;
71792;SDS011;59639;51.170;6.456;2022-07-24T02:50:54;16.75;;;7.40;;
71792;SDS011;59639;51.170;6.456;2022-07-24T02:53:20;13.93;;;6.75;;
71792;SDS011;59639;51.170;6.456;2022-07-24T02:55:45;19.98;;;7.97;;
71792;SDS011;59639;51.170;6.456;2022-07-24T02:58:11;18.95;;;8.00;;
71792;SDS011;59639;51.170;6.456;2022-07-24T03:00:36;15.32;;;7.10;;
71792;SDS011;59639;51.170;6.456;2022-07-24T03:03:02;20.25;;;8.23;;
71792;SDS011;59639;51.170;6.456;2022-07-24T03:05:27;16.02;;;7.32;;
71792;SDS011;59639;51.170;6.456;2022-07-24T03:07:53;12.55;;;7.70;;
71792;SDS011;59639;51.170;6.456;2022-07-24T03:10:18;12.15;;;7.47;;
71792;SDS011;59639;51.170;6.456;2022-07-24T03:12:44;12.02;;;7.55;;
71792;SDS011;59639;51.170;6.456;2022-07-24T03:15:10;18.67;;;7.13;;
71792;SDS011;59639;51.170;6.456;2022-07-24T03:17:37;11.05;;;7.68;;
71792;SDS011;59639;51.170;6.456;2022-07-24T03:20:03;17.50;;;8.60;;
71792;SDS011;59639;51.170;6.456;2022-07-24T03:22:29;13.90;;;8.02;;
71792;SDS011;59639;51.170;6.456;2022-07-24T03:24:54;14.73;;;7.60;;
71792;SDS011;59639;51.170;6.456;2022-07-24T03:27:20;15.80;;;7.85;;
71792;SDS011;59639;51.170;6.456;2022-07-24T03:29:45;15.10;;;8.05;;
71792;SDS011;59639;51.170;6.456;2022-07-24T03:32:10;17.00;;;7.88;;
71792;SDS011;59639;51.170;6.456;2022-07-24T03:34:37;13.15;;;7.78;;
71792;SDS011;59639;51.170;6.456;2022-07-24T03:37:02;13.32;;;7.57;;
71792;SDS011;59639;51.170;6.456;2022-07-24T03:39:27;11.52;;;7.55;;
71792;SDS011;59639;51.170;6.456;2022-07-24T03:41:53;18.42;;;8.13;;
71792;SDS011;59639;51.170;6.456;2022-07-24T03:44:18;17.42;;;8.00;;
71792;SDS011;59639;51.170;6.456;2022-07-24T03:46:44;12.18;;;7.47;;
71792;SDS011;59639;51.170;6.456;2022-07-24T03:49:09;14.35;;;8.43;;
71792;SDS011;59639;51.170;6.456;2022-07-24T03:51:34;10.77;;;7.75;;
71792;SDS011;59639;51.170;6.456;2022-07-24T03:54:00;18.75;;;8.57;;
71792;SDS011;59639;51.170;6.456;2022-07-24T03:56:27;17.73;;;8.90;;
71792;SDS011;59639;51.170;6.456;2022-07-24T03:58:53;16.23;;;8.98;;
71792;SDS011;59639;51.170;6.456;2022-07-24T04:01:19;14.15;;;8.45;;
71792;SDS011;59639;51.170;6.456;2022-07-24T04:03:45;13.80;;;8.00;;
71792;SDS011;59639;51.170;6.456;2022-07-24T04:06:10;14.15;;;7.50;;
71792;SDS011;59639;51.170;6.456;2022-07-24T04:08:35;12.38;;;7.53;;
71792;SDS011;59639;51.170;6.456;2022-07-24T04:11:01;14.75;;;7.68;;
71792;SDS011;59639;51.170;6.456;2022-07-24T04:13:27;13.02;;;8.13;;
71792;SDS011;59639;51.170;6.456;2022-07-24T04:15:54;14.60;;;7.85;;
71792;SDS011;59639;51.170;6.456;2022-07-24T04:18:20;16.95;;;8.20;;
71792;SDS011;59639;51.170;6.456;2022-07-24T04:20:46;16.70;;;8.73;;
71792;SDS011;59639;51.170;6.456;2022-07-24T04:23:13;17.17;;;8.25;;
71792;SDS011;59639;51.170;6.456;2022-07-24T04:25:39;18.38;;;8.88;;
71792;SDS011;59639;51.170;6.456;2022-07-24T04:28:04;14.52;;;8.52;;
71792;SDS011;59639;51.170;6.456;2022-07-24T04:30:30;19.95;;;9.07;;
71792;SDS011;59639;51.170;6.456;2022-07-24T04:32:55;19.33;;;8.32;;
71792;SDS011;59639;51.170;6.456;2022-07-24T04:35:21;19.63;;;8.23;;
71792;SDS011;59639;51.170;6.456;2022-07-24T04:37:47;26.05;;;9.43;;
71792;SDS011;59639;51.170;6.456;2022-07-24T04:40:12;27.25;;;10.32;;
71792;SDS011;59639;51.170;6.456;2022-07-24T04:42:38;13.57;;;8.63;;
71792;SDS011;59639;51.170;6.456;2022-07-24T04:45:04;19.73;;;9.35;;
71792;SDS011;59639;51.170;6.456;2022-07-24T04:47:30;19.70;;;9.05;;
71792;SDS011;59639;51.170;6.456;2022-07-24T04:49:55;20.73;;;9.95;;
71792;SDS011;59639;51.170;6.456;2022-07-24T04:52:21;14.88;;;8.07;;
71792;SDS011;59639;51.170;6.456;2022-07-24T04:54:47;18.90;;;9.38;;
71792;SDS011;59639;51.170;6.456;2022-07-24T04:57:12;15.68;;;8.85;;
71792;SDS011;59639;51.170;6.456;2022-07-24T04:59:37;15.13;;;8.18;;
71792;SDS011;59639;51.170;6.456;2022-07-24T05:02:03;23.77;;;8.93;;
71792;SDS011;59639;51.170;6.456;2022-07-24T05:04:28;26.10;;;9.07;;
71792;SDS011;59639;51.170;6.456;2022-07-24T05:06:54;14.38;;;8.13;;
71792;SDS011;59639;51.170;6.456;2022-07-24T05:09:19;16.90;;;9.05;;
71792;SDS011;59639;51.170;6.456;2022-07-24T05:11:45;20.65;;;8.20;;
71792;SDS011;59639;51.170;6.456;2022-07-24T05:14:10;20.10;;;8.60;;
71792;SDS011;59639;51.170;6.456;2022-07-24T05:16:36;16.55;;;8.18;;
71792;SDS011;59639;51.170;6.456;2022-07-24T05:19:01;18.77;;;8.55;;
71792;SDS011;59639;51.170;6.456;2022-07-24T05:21:27;18.08;;;8.80;;
71792;SDS011;59639;51.170;6.456;2022-07-24T05:23:52;16.92;;;9.02;;
71792;SDS011;59639;51.170;6.456;2022-07-24T05:26:18;28.00;;;10.15;;
71792;SDS011;59639;51.170;6.456;2022-07-24T05:28:43;20.15;;;9.18;;
71792;SDS011;59639;51.170;6.456;2022-07-24T05:31:08;17.75;;;8.68;;
71792;SDS011;59639;51.170;6.456;2022-07-24T05:33:34;20.65;;;9.77;;
71792;SDS011;59639;51.170;6.456;2022-07-24T05:36:00;20.75;;;8.68;;
71792;SDS011;59639;51.170;6.456;2022-07-24T05:38:25;16.00;;;8.32;;
71792;SDS011;59639;51.170;6.456;2022-07-24T05:40:50;13.68;;;7.80;;
71792;SDS011;59639;51.170;6.456;2022-07-24T05:43:16;22.13;;;8.38;;
71792;SDS011;59639;51.170;6.456;2022-07-24T05:45:42;12.73;;;8.07;;
71792;SDS011;59639;51.170;6.456;2022-07-24T05:48:07;17.33;;;8.60;;
71792;SDS011;59639;51.170;6.456;2022-07-24T05:50:32;20.60;;;9.55;;
71792;SDS011;59639;51.170;6.456;2022-07-24T05:52:58;16.52;;;9.10;;
71792;SDS011;59639;51.170;6.456;2022-07-24T05:55:24;12.10;;;8.05;;
71792;SDS011;59639;51.170;6.456;2022-07-24T05:57:49;12.60;;;8.40;;
71792;SDS011;59639;51.170;6.456;2022-07-24T06:00:15;9.70;;;7.10;;
71792;SDS011;59639;51.170;6.456;2022-07-24T06:02:44;16.05;;;8.43;;
71792;SDS011;59639;51.170;6.456;2022-07-24T06:05:11;12.70;;;8.13;;
71792;SDS011;59639;51.170;6.456;2022-07-24T06:07:36;14.18;;;7.43;;
71792;SDS011;59639;51.170;6.456;2022-07-24T06:10:02;15.38;;;8.45;;
71792;SDS011;59639;51.170;6.456;2022-07-24T06:12:28;13.43;;;8.40;;
71792;SDS011;59639;51.170;6.456;2022-07-24T06:14:53;21.77;;;9.95;;
71792;SDS011;59639;51.170;6.456;2022-07-24T06:17:19;14.40;;;9.05;;
71792;SDS011;59639;51.170;6.456;2022-07-24T06:19:44;20.55;;;9.50;;
71792;SDS011;59639;51.170;6.456;2022-07-24T06:22:09;18.52;;;9.48;;
71792;SDS011;59639;51.170;6.456;2022-07-24T06:24:35;20.05;;;11.60;;
71792;SDS011;59639;51.170;6.456;2022-07-24T06:27:00;23.35;;;11.40;;
71792;SDS011;59639;51.170;6.456;2022-07-24T06:29:25;17.77;;;10.05;;
71792;SDS011;59639;51.170;6.456;2022-07-24T06:31:51;18.85;;;12.30;;
71792;SDS011;59639;51.170;6.456;2022-07-24T06:34:16;21.33;;;14.57;;
71792;SDS011;59639;51.170;6.456;2022-07-24T06:36:41;19.88;;;12.65;;
71792;SDS011;59639;51.170;6.456;2022-07-24T06:39:07;20.38;;;12.93;;
71792;SDS011;59639;51.170;6.456;2022-07-24T06:41:32;30.25;;;17.73;;
71792;SDS011;59639;51.170;6.456;2022-07-24T06:43:57;21.25;;;14.82;;
71792;SDS011;59639;51.170;6.456;2022-07-24T06:46:24;21.23;;;12.48;;
71792;SDS011;59639;51.170;6.456;2022-07-24T06:48:50;26.58;;;13.20;;
71792;SDS011;59639;51.170;6.456;2022-07-24T06:51:15;22.42;;;13.40;;
71792;SDS011;59639;51.170;6.456;2022-07-24T06:53:42;23.27;;;14.18;;
71792;SDS011;59639;51.170;6.456;2022-07-24T06:56:10;19.42;;;12.07;;
71792;SDS011;59639;51.170;6.456;2022-07-24T06:58:35;22.67;;;13.27;;
71792;SDS011;59639;51.170;6.456;2022-07-24T07:01:00;24.52;;;14.43;;
71792;SDS011;59639;51.170;6.456;2022-07-24T07:03:26;25.25;;;16.02;;
71792;SDS011;59639;51.170;6.456;2022-07-24T07:05:51;27.33;;;15.00;;
71792;SDS011;59639;51.170;6.456;2022-07-24T07:08:16;27.52;;;17.15;;
71792;SDS011;59639;51.170;6.456;2022-07-24T07:10:42;23.50;;;13.52;;
71792;SDS011;59639;51.170;6.456;2022-07-24T07:13:07;29.10;;;14.32;;
71792;SDS011;59639;51.170;6.456;2022-07-24T07:15:33;32.33;;;16.50;;
71792;SDS011;59639;51.170;6.456;2022-07-24T07:17:58;24.30;;;15.52;;
71792;SDS011;59639;51.170;6.456;2022-07-24T07:20:23;26.00;;;14.50;;
71792;SDS011;59639;51.170;6.456;2022-07-24T07:22:49;27.45;;;15.00;;
71792;SDS011;59639;51.170;6.456;2022-07-24T07:25:14;25.23;;;14.43;;
71792;SDS011;59639;51.170;6.456;2022-07-24T07:27:40;24.48;;;16.02;;
71792;SDS011;59639;51.170;6.456;2022-07-24T07:30:05;21.25;;;13.80;;
71792;SDS011;59639;51.170;6.456;2022-07-24T07:32:31;27.25;;;15.35;;
71792;SDS011;59639;51.170;6.456;2022-07-24T07:34:57;25.38;;;13.48;;
71792;SDS011;59639;51.170;6.456;2022-07-24T07:37:23;20.58;;;13.35;;
71792;SDS011;59639;51.170;6.456;2022-07-24T07:39:48;18.50;;;11.75;;
71792;SDS011;59639;51.170;6.456;2022-07-24T07:42:13;19.50;;;12.85;;
71792;SDS011;59639;51.170;6.456;2022-07-24T07:44:39;18.00;;;13.55;;
71792;SDS011;59639;51.170;6.456;2022-07-24T07:47:04;24.65;;;13.23;;
71792;SDS011;59639;51.170;6.456;2022-07-24T07:49:30;22.17;;;13.00;;
71792;SDS011;59639;51.170;6.456;2022-07-24T07:51:55;20.85;;;12.98;;
71792;SDS011;59639;51.170;6.456;2022-07-24T07:54:20;22.60;;;12.93;;
71792;SDS011;59639;51.170;6.456;2022-07-24T07:56:46;23.00;;;13.93;;
71792;SDS011;59639;51.170;6.456;2022-07-24T07:59:11;23.92;;;15.20;;
71792;SDS011;59639;51.170;6.456;2022-07-24T08:01:37;31.08;;;18.48;;
71792;SDS011;59639;51.170;6.456;2022-07-24T08:04:02;25.00;;;15.07;;
71792;SDS011;59639;51.170;6.456;2022-07-24T08:06:28;20.15;;;12.68;;
71792;SDS011;59639;51.170;6.456;2022-07-24T08:08:53;41.05;;;18.77;;
71792;SDS011;59639;51.170;6.456;2022-07-24T08:11:19;19.00;;;13.15;;
71792;SDS011;59639;51.170;6.456;2022-07-24T08:13:44;36.20;;;16.63;;
71792;SDS011;59639;51.170;6.456;2022-07-24T08:16:10;22.70;;;12.48;;
71792;SDS011;59639;51.170;6.456;2022-07-24T08:18:35;21.58;;;12.80;;
71792;SDS011;59639;51.170;6.456;2022-07-24T08:21:01;16.55;;;11.98;;
71792;SDS011;59639;51.170;6.456;2022-07-24T08:23:26;18.00;;;11.30;;
71792;SDS011;59639;51.170;6.456;2022-07-24T08:25:52;20.45;;;11.40;;
71792;SDS011;59639;51.170;6.456;2022-07-24T08:28:17;20.50;;;11.00;;
71792;SDS011;59639;51.170;6.456;2022-07-24T08:30:43;17.10;;;11.30;;
71792;SDS011;59639;51.170;6.456;2022-07-24T08:33:08;22.67;;;11.80;;
71792;SDS011;59639;51.170;6.456;2022-07-24T08:35:33;14.93;;;11.07;;
71792;SDS011;59639;51.170;6.456;2022-07-24T08:37:59;12.80;;;9.45;;
71792;SDS011;59639;51.170;6.456;2022-07-24T08:40:25;14.77;;;10.35;;
71792;SDS011;59639;51.170;6.456;2022-07-24T08:42:51;12.90;;;9.60;;
71792;SDS011;59639;51.170;6.456;2022-07-24T08:45:16;16.90;;;10.52;;
71792;SDS011;59639;51.170;6.456;2022-07-24T08:47:41;14.03;;;9.63;;
71792;SDS011;59639;51.170;6.456;2022-07-24T08:50:08;14.60;;;9.65;;
71792;SDS011;59639;51.170;6.456;2022-07-24T08:52:34;13.95;;;9.73;;
71792;SDS011;59639;51.170;6.456;2022-07-24T08:55:00;15.18;;;8.95;;
71792;SDS011;59639;51.170;6.456;2022-07-24T08:57:26;11.20;;;7.32;;
71792;SDS011;59639;51.170;6.456;2022-07-24T08:59:52;13.23;;;7.85;;
71792;SDS011;59639;51.170;6.456;2022-07-24T09:02:17;11.32;;;7.07;;
71792;SDS011;59639;51.170;6.456;2022-07-24T09:04:44;14.77;;;8.65;;
71792;SDS011;59639;51.170;6.456;2022-07-24T09:07:11;11.55;;;7.93;;
71792;SDS011;59639;51.170;6.456;2022-07-24T09:09:39;13.23;;;7.18;;
71792;SDS011;59639;51.170;6.456;2022-07-24T09:14:43;15.77;;;8.70;;
71792;SDS011;59639;51.170;6.456;2022-07-24T09:17:14;11.60;;;7.10;;
71792;SDS011;59639;51.170;6.456;2022-07-24T09:19:45;14.77;;;8.30;;
71792;SDS011;59639;51.170;6.456;2022-07-24T09:22:16;11.07;;;8.40;;
71792;SDS011;59639;51.170;6.456;2022-07-24T09:24:47;11.18;;;7.65;;
71792;SDS011;59639;51.170;6.456;2022-07-24T09:27:30;10.50;;;7.82;;
71792;SDS011;59639;51.170;6.456;2022-07-24T09:29:56;15.68;;;7.50;;
71792;SDS011;59639;51.170;6.456;2022-07-24T09:32:22;10.88;;;7.05;;
71792;SDS011;59639;51.170;6.456;2022-07-24T09:34:50;10.57;;;7.07;;
71792;SDS011;59639;51.170;6.456;2022-07-24T09:37:17;10.15;;;7.68;;
71792;SDS011;59639;51.170;6.456;2022-07-24T09:39:43;10.55;;;7.00;;
71792;SDS011;59639;51.170;6.456;2022-07-24T09:42:10;8.75;;;6.85;;
71792;SDS011;59639;51.170;6.456;2022-07-24T09:44:37;10.13;;;6.85;;
71792;SDS011;59639;51.170;6.456;2022-07-24T09:47:03;11.80;;;6.43;;
71792;SDS011;59639;51.170;6.456;2022-07-24T09:49:29;11.05;;;6.28;;
71792;SDS011;59639;51.170;6.456;2022-07-24T09:54:34;8.77;;;5.85;;
71792;SDS011;59639;51.170;6.456;2022-07-24T09:59:49;10.05;;;6.50;;
71792;SDS011;59639;51.170;6.456;2022-07-24T10:02:18;8.50;;;6.03;;
71792;SDS011;59639;51.170;6.456;2022-07-24T10:04:45;10.45;;;6.43;;
71792;SDS011;59639;51.170;6.456;2022-07-24T10:07:13;12.77;;;6.45;;
71792;SDS011;59639;51.170;6.456;2022-07-24T10:09:43;11.20;;;6.50;;
71792;SDS011;59639;51.170;6.456;2022-07-24T10:12:11;11.60;;;5.95;;
71792;SDS011;59639;51.170;6.456;2022-07-24T10:14:41;13.88;;;6.50;;
71792;SDS011;59639;51.170;6.456;2022-07-24T10:17:09;9.15;;;6.47;;
71792;SDS011;59639;51.170;6.456;2022-07-24T10:19:46;6.30;;;5.53;;
71792;SDS011;59639;51.170;6.456;2022-07-24T10:22:23;7.40;;;5.38;;
71792;SDS011;59639;51.170;6.456;2022-07-24T10:29:48;10.80;;;5.75;;
71792;SDS011;59639;51.170;6.456;2022-07-24T10:32:17;8.57;;;5.80;;
71792;SDS011;59639;51.170;6.456;2022-07-24T10:34:47;11.60;;;6.30;;
71792;SDS011;59639;51.170;6.456;2022-07-24T10:42:32;10.05;;;5.97;;
71792;SDS011;59639;51.170;6.456;2022-07-24T10:45:17;7.10;;;5.75;;
71792;SDS011;59639;51.170;6.456;2022-07-24T10:47:44;9.43;;;6.13;;
71792;SDS011;59639;51.170;6.456;2022-07-24T10:50:10;10.27;;;5.82;;
71792;SDS011;59639;51.170;6.456;2022-07-24T10:52:37;12.20;;;5.95;;
71792;SDS011;59639;51.170;6.456;2022-07-24T10:57:53;7.50;;;6.10;;
71792;SDS011;59639;51.170;6.456;2022-07-24T11:00:32;10.88;;;6.45;;
71792;SDS011;59639;51.170;6.456;2022-07-24T11:03:04;11.80;;;5.68;;
71792;SDS011;59639;51.170;6.456;2022-07-24T11:18:35;10.25;;;5.88;;
71792;SDS011;59639;51.170;6.456;2022-07-24T11:21:02;8.68;;;6.20;;
71792;SDS011;59639;51.170;6.456;2022-07-24T11:23:27;11.10;;;6.35;;
71792;SDS011;59639;51.170;6.456;2022-07-24T11:26:39;9.18;;;6.20;;
71792;SDS011;59639;51.170;6.456;2022-07-24T11:31:51;11.02;;;6.53;;
71792;SDS011;59639;51.170;6.456;2022-07-24T11:34:19;8.73;;;5.82;;
71792;SDS011;59639;51.170;6.456;2022-07-24T11:36:46;8.05;;;6.05;;
71792;SDS011;59639;51.170;6.456;2022-07-24T11:39:13;10.10;;;6.07;;
71792;SDS011;59639;51.170;6.456;2022-07-24T11:42:22;12.05;;;6.45;;
71792;SDS011;59639;51.170;6.456;2022-07-24T11:47:11;12.43;;;7.13;;
71792;SDS011;59639;51.170;6.456;2022-07-24T11:52:16;8.73;;;5.97;;
71792;SDS011;59639;51.170;6.456;2022-07-24T11:54:46;11.43;;;6.15;;
71792;SDS011;59639;51.170;6.456;2022-07-24T11:57:16;13.77;;;6.03;;
71792;SDS011;59639;51.170;6.456;2022-07-24T11:59:43;10.45;;;5.93;;
71792;SDS011;59639;51.170;6.456;2022-07-24T12:02:09;9.25;;;5.78;;
71792;SDS011;59639;51.170;6.456;2022-07-24T12:04:36;9.20;;;5.75;;
71792;SDS011;59639;51.170;6.456;2022-07-24T12:07:06;7.00;;;5.60;;
71792;SDS011;59639;51.170;6.456;2022-07-24T12:09:33;7.95;;;5.80;;
71792;SDS011;59639;51.170;6.456;2022-07-24T12:12:17;10.93;;;5.82;;
71792;SDS011;59639;51.170;6.456;2022-07-24T12:14:43;10.85;;;5.88;;
71792;SDS011;59639;51.170;6.456;2022-07-24T12:17:08;13.98;;;6.30;;
71792;SDS011;59639;51.170;6.456;2022-07-24T12:19:34;8.95;;;5.30;;
71792;SDS011;59639;51.170;6.456;2022-07-24T12:21:59;10.30;;;5.95;;
71792;SDS011;59639;51.170;6.456;2022-07-24T12:24:24;12.30;;;5.10;;
71792;SDS011;59639;51.170;6.456;2022-07-24T12:26:51;9.32;;;5.40;;
71792;SDS011;59639;51.170;6.456;2022-07-24T12:29:24;11.75;;;5.43;;
71792;SDS011;59639;51.170;6.456;2022-07-24T12:32:12;16.35;;;5.05;;
71792;SDS011;59639;51.170;6.456;2022-07-24T12:34:46;8.23;;;5.50;;
71792;SDS011;59639;51.170;6.456;2022-07-24T12:39:45;8.40;;;4.85;;
71792;SDS011;59639;51.170;6.456;2022-07-24T12:42:14;7.78;;;5.13;;
71792;SDS011;59639;51.170;6.456;2022-07-24T12:44:41;7.25;;;5.18;;
71792;SDS011;59639;51.170;6.456;2022-07-24T12:47:08;7.82;;;5.03;;
71792;SDS011;59639;51.170;6.456;2022-07-24T12:49:44;6.35;;;5.07;;
71792;SDS011;59639;51.170;6.456;2022-07-24T12:52:21;9.80;;;6.03;;
71792;SDS011;59639;51.170;6.456;2022-07-24T12:54:49;9.65;;;5.55;;
71792;SDS011;59639;51.170;6.456;2022-07-24T12:57:16;11.73;;;5.47;;
71792;SDS011;59639;51.170;6.456;2022-07-24T12:59:45;9.52;;;5.70;;
71792;SDS011;59639;51.170;6.456;2022-07-24T13:04:40;8.32;;;6.00;;
71792;SDS011;59639;51.170;6.456;2022-07-24T13:07:11;10.77;;;5.38;;
71792;SDS011;59639;51.170;6.456;2022-07-24T13:09:37;9.35;;;5.32;;
71792;SDS011;59639;51.170;6.456;2022-07-24T13:12:03;9.63;;;5.53;;
71792;SDS011;59639;51.170;6.456;2022-07-24T13:14:30;6.78;;;5.72;;
71792;SDS011;59639;51.170;6.456;2022-07-24T13:17:00;6.70;;;5.10;;
71792;SDS011;59639;51.170;6.456;2022-07-24T13:19:33;7.35;;;5.10;;
71792;SDS011;59639;51.170;6.456;2022-07-24T13:21:59;9.25;;;5.40;;
71792;SDS011;59639;51.170;6.456;2022-07-24T13:24:24;6.07;;;5.28;;
71792;SDS011;59639;51.170;6.456;2022-07-24T13:26:50;10.18;;;5.25;;
71792;SDS011;59639;51.170;6.456;2022-07-24T13:29:16;9.20;;;5.25;;
71792;SDS011;59639;51.170;6.456;2022-07-24T13:31:41;8.10;;;5.47;;
71792;SDS011;59639;51.170;6.456;2022-07-24T13:34:07;7.88;;;5.22;;
71792;SDS011;59639;51.170;6.456;2022-07-24T13:36:33;9.40;;;5.57;;
71792;SDS011;59639;51.170;6.456;2022-07-24T13:38:59;6.40;;;4.88;;
71792;SDS011;59639;51.170;6.456;2022-07-24T13:41:25;7.50;;;4.88;;
71792;SDS011;59639;51.170;6.456;2022-07-24T13:43:51;7.72;;;5.50;;
71792;SDS011;59639;51.170;6.456;2022-07-24T13:46:17;8.88;;;5.18;;
71792;SDS011;59639;51.170;6.456;2022-07-24T13:48:43;7.82;;;5.82;;
71792;SDS011;59639;51.170;6.456;2022-07-24T13:51:09;9.98;;;6.20;;
71792;SDS011;59639;51.170;6.456;2022-07-24T13:53:34;9.98;;;7.82;;
71792;SDS011;59639;51.170;6.456;2022-07-24T13:56:01;7.68;;;5.30;;
71792;SDS011;59639;51.170;6.456;2022-07-24T13:58:29;9.90;;;5.53;;
71792;SDS011;59639;51.170;6.456;2022-07-24T14:00:54;8.27;;;5.43;;
71792;SDS011;59639;51.170;6.456;2022-07-24T14:03:19;7.28;;;5.57;;
71792;SDS011;59639;51.170;6.456;2022-07-24T14:05:45;8.35;;;6.07;;
71792;SDS011;59639;51.170;6.456;2022-07-24T14:08:10;7.53;;;4.97;;
71792;SDS011;59639;51.170;6.456;2022-07-24T14:10:36;7.75;;;5.40;;
71792;SDS011;59639;51.170;6.456;2022-07-24T14:13:01;8.00;;;5.25;;
71792;SDS011;59639;51.170;6.456;2022-07-24T14:15:27;8.95;;;4.88;;
71792;SDS011;59639;51.170;6.456;2022-07-24T14:17:54;9.13;;;5.68;;
71792;SDS011;59639;51.170;6.456;2022-07-24T14:20:20;6.47;;;5.40;;
71792;SDS011;59639;51.170;6.456;2022-07-24T14:22:45;6.78;;;5.50;;
71792;SDS011;59639;51.170;6.456;2022-07-24T14:25:11;8.82;;;6.28;;
71792;SDS011;59639;51.170;6.456;2022-07-24T14:27:36;8.23;;;6.00;;
71792;SDS011;59639;51.170;6.456;2022-07-24T14:30:03;6.85;;;5.30;;
71792;SDS011;59639;51.170;6.456;2022-07-24T14:32:30;6.00;;;4.93;;
71792;SDS011;59639;51.170;6.456;2022-07-24T14:34:56;10.77;;;5.28;;
71792;SDS011;59639;51.170;6.456;2022-07-24T14:37:21;6.65;;;5.30;;
71792;SDS011;59639;51.170;6.456;2022-07-24T14:39:46;9.55;;;5.18;;
71792;SDS011;59639;51.170;6.456;2022-07-24T14:42:12;8.68;;;5.45;;
71792;SDS011;59639;51.170;6.456;2022-07-24T14:44:37;12.52;;;5.90;;
71792;SDS011;59639;51.170;6.456;2022-07-24T14:47:02;10.63;;;5.47;;
71792;SDS011;59639;51.170;6.456;2022-07-24T14:49:29;9.10;;;5.50;;
71792;SDS011;59639;51.170;6.456;2022-07-24T14:51:55;8.70;;;5.70;;
71792;SDS011;59639;51.170;6.456;2022-07-24T14:54:21;7.03;;;5.18;;
71792;SDS011;59639;51.170;6.456;2022-07-24T14:56:46;7.82;;;5.28;;
71792;SDS011;59639;51.170;6.456;2022-07-24T14:59:11;10.27;;;5.13;;
71792;SDS011;59639;51.170;6.456;2022-07-24T15:01:37;7.72;;;5.45;;
71792;SDS011;59639;51.170;6.456;2022-07-24T15:04:03;6.88;;;4.85;;
71792;SDS011;59639;51.170;6.456;2022-07-24T15:06:29;8.23;;;5.72;;
71792;SDS011;59639;51.170;6.456;2022-07-24T15:08:54;8.93;;;5.43;;
71792;SDS011;59639;51.170;6.456;2022-07-24T15:11:20;8.55;;;5.32;;
71792;SDS011;59639;51.170;6.456;2022-07-24T15:13:50;8.68;;;5.40;;
71792;SDS011;59639;51.170;6.456;2022-07-24T15:16:15;7.68;;;5.90;;
71792;SDS011;59639;51.170;6.456;2022-07-24T15:18:41;8.88;;;5.10;;